Aérodrome :
LOGIN :

S'inscrire | Disclaimer

   EN    FR    IT 

 










Légende :    VFR   VFR Marginal   IFR   IFR Intensif   IFR Très Intensif
Visi : 
Plafond : 
>= 8 km
>= 3000ft
5 à 8 km
1000 à 3000 ft
1500m à 5 km
500 à 1000 ft
800 à 1500m
200 à 500 ft
< 800m
< 200 ft
Symboles :   Orages  Brouillard  Fortes neiges  Fortes précipitations  Vent > 20 kt
SIGMETs :   Divers  Orages  Givrage  Turbulence  Onde Orograph.  Cendres Volcan.






- Altitude de l'aérodrome : 405 ft
- Code IATA : ODH


EGVO - RAF Odiham

DERNIER METAR :
  • 281350Z 25018KT 9999 -SHRA SCT025 05/01 Q0997 TEMPO SCT020 RMK BLU TEMPO WHT

METARs EXPIRÉS :
  • 281320Z 25019KT 9999 SCT026 06/01 Q0997 TEMPO SCT020 RMK BLU TEMPO WHT
  • 281250Z 24020KT 9999 FEW023 07/02 Q0997 TEMPO SCT022 RMK BLU TEMPO WHT
  • 281221Z 24018KT 9999 FEW022 06/02 Q0997 TEMPO SCT022 RMK BLU TEMPO WHT
  • 281150Z 23018KT 9999 FEW016 05/01 Q0997 TEMPO SCT018 RMK BLU TEMPO WHT
  • 281120Z 22017KT 9999 FEW020 05/01 Q0997 NOSIG RMK BLU BLU
  • 281050Z 23015KT 9999 FEW014 04/01 Q0997 NOSIG RMK BLU BLU

TAF TAF EGVO
Valide du 28 à 12h jusqu'au 29 à 00h UTC


281039Z 2812/2824 24014KT 9999 SCT030
PROB40
TEMPO 2812/2824 26016G28KT
PROB30
TEMPO 2812/2817 7000 SHRA SCT020CB



MET'MAP, la Météo Aéronautique d'un coup d'oeil ! - Copyright ORBIFLY Décembre 2007 - Disclaimer

ORBIFLY MET'MAP TEAM :

Programmation & Développement : Alexandra Zaïnal
Sur une idée originale de : Baudouin d'Aumeries
Assistance à la programmation : Marc-Olivier Méhu
Soutien technique & logistique : Manuel Goepfert

Contact : metmap@orbifly.com




SOURCES & CREDITS :

   NOAA